sensor_id;sensor_type;location;lat;lon;timestamp;pressure;altitude;pressure_sealevel;temperature;humidity
46174;BME280;31897;52.420;13.498;2023-05-24T00:01:21;101400;;;10.54744;29.64653
46174;BME280;31897;52.420;13.498;2023-05-24T00:04:21;101400;;;10.52031;29.61776
46174;BME280;31897;52.420;13.498;2023-05-24T00:07:22;101400;;;10.50512;29.62405
46174;BME280;31897;52.420;13.498;2023-05-24T00:10:23;101400;;;10.47702;29.65424
46174;BME280;31897;52.420;13.498;2023-05-24T00:13:24;101400;;;10.4263;29.66732
46174;BME280;31897;52.420;13.498;2023-05-24T00:16:25;101400;;;10.40046;29.66209
46174;BME280;31897;52.420;13.498;2023-05-24T00:19:25;101400;;;10.32874;29.84066
46174;BME280;31897;52.420;13.498;2023-05-24T00:22:26;101400;;;10.2735;29.72424
46174;BME280;31897;52.420;13.498;2023-05-24T00:25:27;101400;;;10.2748;29.78312
46174;BME280;31897;52.420;13.498;2023-05-24T00:28:28;101400;;;10.24766;29.74846
46174;BME280;31897;52.420;13.498;2023-05-24T00:31:29;101400;;;10.2089;29.79067
46174;BME280;31897;52.420;13.498;2023-05-24T00:34:29;101400;;;10.22666;29.77844
46174;BME280;31897;52.420;13.498;2023-05-24T00:37:30;101400;;;10.25509;29.76005
46174;BME280;31897;52.420;13.498;2023-05-24T00:40:31;101400;;;10.20147;29.73196
46174;BME280;31897;52.420;13.498;2023-05-24T00:43:32;101400;;;10.19759;29.79096
46174;BME280;31897;52.420;13.498;2023-05-24T00:46:33;101400;;;10.19985;29.76734
46174;BME280;31897;52.420;13.498;2023-05-24T00:49:34;101400;;;10.13912;29.73354
46174;BME280;31897;52.420;13.498;2023-05-24T00:52:35;101400;;;10.12038;29.68102
46174;BME280;31897;52.420;13.498;2023-05-24T00:55:36;101400;;;10.00344;29.67811
46174;BME280;31897;52.420;13.498;2023-05-24T00:58:37;101400;;;9.95854;29.79698
46174;BME280;31897;52.420;13.498;2023-05-24T01:01:38;101400;;;9.93528;29.80345
46174;BME280;31897;52.420;13.498;2023-05-24T01:04:39;101400;;;9.88359;29.84594
46174;BME280;31897;52.420;13.498;2023-05-24T01:07:45;101400;;;9.86712;29.92874
46174;BME280;31897;52.420;13.498;2023-05-24T01:10:50;101400;;;9.83708;29.93537
46174;BME280;31897;52.420;13.498;2023-05-24T01:13:57;101400;;;9.75922;30.07262
46174;BME280;31897;52.420;13.498;2023-05-24T01:17:02;101400;;;9.81802;30.1359
46174;BME280;31897;52.420;13.498;2023-05-24T01:20:05;101400;;;9.89716;30.11632
46174;BME280;31897;52.420;13.498;2023-05-24T01:23:13;101400;;;9.98083;30.04953
46174;BME280;31897;52.420;13.498;2023-05-24T01:26:18;101400;;;10.07483;30.00599
46174;BME280;31897;52.420;13.498;2023-05-24T01:29:19;101400;;;10.10649;29.99345
46174;BME280;31897;52.420;13.498;2023-05-24T01:32:20;101400;;;10.07548;29.99422
46174;BME280;31897;52.420;13.498;2023-05-24T01:35:21;101500;;;10.06385;30.02983
46174;BME280;31897;52.420;13.498;2023-05-24T01:38:22;101500;;;10.04027;30.07751
46174;BME280;31897;52.420;13.498;2023-05-24T01:41:27;101500;;;9.92753;30.19798
46174;BME280;31897;52.420;13.498;2023-05-24T01:44:35;101500;;;9.90265;30.29862
46174;BME280;31897;52.420;13.498;2023-05-24T01:47:41;101500;;;9.97631;30.3204
46174;BME280;31897;52.420;13.498;2023-05-24T01:50:47;101500;;;10.01733;30.31353
46174;BME280;31897;52.420;13.498;2023-05-24T01:53:51;101500;;;10.02702;30.31918
46174;BME280;31897;52.420;13.498;2023-05-24T01:56:53;101500;;;10.01443;30.38423
46174;BME280;31897;52.420;13.498;2023-05-24T01:59:56;101500;;;10.02929;30.51926
46174;BME280;31897;52.420;13.498;2023-05-24T02:02:59;101500;;;10.01087;30.49615
46174;BME280;31897;52.420;13.498;2023-05-24T02:06:01;101500;;;10.07774;30.52401
46174;BME280;31897;52.420;13.498;2023-05-24T02:09:02;101500;;;10.08033;30.51217
46174;BME280;31897;52.420;13.498;2023-05-24T02:12:03;101500;;;10.09325;30.44122
46174;BME280;31897;52.420;13.498;2023-05-24T02:15:04;101500;;;10.03865;30.51904
46174;BME280;31897;52.420;13.498;2023-05-24T02:18:05;101500;;;9.99375;30.52598
46174;BME280;31897;52.420;13.498;2023-05-24T02:21:05;101500;;;9.9608;30.53264
46174;BME280;31897;52.420;13.498;2023-05-24T02:24:06;101500;;;9.88198;30.57568
46174;BME280;31897;52.420;13.498;2023-05-24T02:27:07;101500;;;9.86906;30.48184
46174;BME280;31897;52.420;13.498;2023-05-24T02:30:08;101500;;;9.83385;30.63563
46174;BME280;31897;52.420;13.498;2023-05-24T02:33:09;101400;;;9.83675;30.62968
46174;BME280;31897;52.420;13.498;2023-05-24T02:36:10;101400;;;9.91881;30.63366
46174;BME280;31897;52.420;13.498;2023-05-24T02:39:10;101400;;;9.93302;30.59801
46174;BME280;31897;52.420;13.498;2023-05-24T02:42:11;101400;;;9.91138;30.54557
46174;BME280;31897;52.420;13.498;2023-05-24T02:45:12;101400;;;9.93431;30.68626
46174;BME280;31897;52.420;13.498;2023-05-24T02:48:13;101500;;;9.90524;30.59279
46174;BME280;31897;52.420;13.498;2023-05-24T02:51:13;101400;;;9.95434;30.57987
46174;BME280;31897;52.420;13.498;2023-05-24T02:54:14;101400;;;9.99601;30.61421
46174;BME280;31897;52.420;13.498;2023-05-24T02:57:15;101500;;;10.02799;30.56638
46174;BME280;31897;52.420;13.498;2023-05-24T03:00:16;101500;;;10.03768;30.62501
46174;BME280;31897;52.420;13.498;2023-05-24T03:03:17;101500;;;10.13427;30.57566
46174;BME280;31897;52.420;13.498;2023-05-24T03:06:18;101500;;;10.14913;30.5341
46174;BME280;31897;52.420;13.498;2023-05-24T03:09:18;101500;;;10.18208;30.53921
46174;BME280;31897;52.420;13.498;2023-05-24T03:12:19;101500;;;10.09519;30.55303
46174;BME280;31897;52.420;13.498;2023-05-24T03:15:20;101500;;;10.04156;30.64846
46174;BME280;31897;52.420;13.498;2023-05-24T03:18:21;101500;;;10.00667;30.69636
46174;BME280;31897;52.420;13.498;2023-05-24T03:21:21;101500;;;9.86486;30.77024
46174;BME280;31897;52.420;13.498;2023-05-24T03:24:22;101500;;;9.81382;30.86553
46174;BME280;31897;52.420;13.498;2023-05-24T03:27:23;101500;;;9.82125;31.00653
46174;BME280;31897;52.420;13.498;2023-05-24T03:30:24;101500;;;9.81253;30.92438
46174;BME280;31897;52.420;13.498;2023-05-24T03:33:25;101500;;;9.84225;30.94724
46174;BME280;31897;52.420;13.498;2023-05-24T03:36:25;101500;;;9.85291;30.90582
46174;BME280;31897;52.420;13.498;2023-05-24T03:39:26;101500;;;9.80833;30.92448
46174;BME280;31897;52.420;13.498;2023-05-24T03:42:27;101500;;;9.72595;30.92633
46174;BME280;31897;52.420;13.498;2023-05-24T03:45:28;101500;;;9.80833;30.91859
46174;BME280;31897;52.420;13.498;2023-05-24T03:48:29;101500;;;9.85129;30.83526
46174;BME280;31897;52.420;13.498;2023-05-24T03:51:29;101500;;;9.80703;30.90686
46174;BME280;31897;52.420;13.498;2023-05-24T03:54:30;101500;;;9.82189;30.97711
46174;BME280;31897;52.420;13.498;2023-05-24T03:57:31;101500;;;9.82803;30.95345
46174;BME280;31897;52.420;13.498;2023-05-24T04:00:32;101500;;;9.84709;30.92949
46174;BME280;31897;52.420;13.498;2023-05-24T04:03:32;101500;;;9.83902;30.89437
46174;BME280;31897;52.420;13.498;2023-05-24T04:06:33;101500;;;9.79476;30.87184
46174;BME280;31897;52.420;13.498;2023-05-24T04:09:34;101500;;;9.84257;30.85311
46174;BME280;31897;52.420;13.498;2023-05-24T04:12:35;101500;;;9.86292;30.7291
46174;BME280;31897;52.420;13.498;2023-05-24T04:15:36;101500;;;9.78216;30.78389
46174;BME280;31897;52.420;13.498;2023-05-24T04:18:37;101500;;;9.84128;30.83549
46174;BME280;31897;52.420;13.498;2023-05-24T04:21:38;101500;;;9.8991;30.70473
46174;BME280;31897;52.420;13.498;2023-05-24T04:24:38;101500;;;9.94562;30.62715
46174;BME280;31897;52.420;13.498;2023-05-24T04:27:39;101500;;;9.97631;30.5617
46174;BME280;31897;52.420;13.498;2023-05-24T04:30:40;101500;;;9.97146;30.44411
46174;BME280;31897;52.420;13.498;2023-05-24T04:33:41;101500;;;9.93819;30.48609
46174;BME280;31897;52.420;13.498;2023-05-24T04:36:42;101500;;;9.95789;30.51505
46174;BME280;31897;52.420;13.498;2023-05-24T04:39:42;101500;;;10.05125;30.45399
46174;BME280;31897;52.420;13.498;2023-05-24T04:42:43;101500;;;10.0716;30.324
46174;BME280;31897;52.420;13.498;2023-05-24T04:45:44;101500;;;10.08259;30.35906
46174;BME280;31897;52.420;13.498;2023-05-24T04:48:45;101500;;;10.09809;30.1644
46174;BME280;31897;52.420;13.498;2023-05-24T04:51:45;101500;;;10.05481;30.24787
46174;BME280;31897;52.420;13.498;2023-05-24T04:54:47;101500;;;10.00538;30.06659
46174;BME280;31897;52.420;13.498;2023-05-24T04:57:48;101500;;;10.00215;30.10787
46174;BME280;31897;52.420;13.498;2023-05-24T05:00:48;101500;;;10.05125;30.06546
46174;BME280;31897;52.420;13.498;2023-05-24T05:03:49;101500;;;10.0968;30.04079
46174;BME280;31897;52.420;13.498;2023-05-24T05:06:50;101500;;;10.09486;29.97019
46174;BME280;31897;52.420;13.498;2023-05-24T05:09:51;101500;;;10.08226;29.94695
46174;BME280;31897;52.420;13.498;2023-05-24T05:12:52;101500;;;10.01249;29.85449
46174;BME280;31897;52.420;13.498;2023-05-24T05:15:53;101500;;;10.08291;29.88217
46174;BME280;31897;52.420;13.498;2023-05-24T05:18:53;101500;;;10.13363;29.83379
46174;BME280;31897;52.420;13.498;2023-05-24T05:21:54;101500;;;10.08614;29.72311
46174;BME280;31897;52.420;13.498;2023-05-24T05:24:55;101500;;;10.08969;29.91732
46174;BME280;31897;52.420;13.498;2023-05-24T05:27:56;101500;;;10.19436;29.87938
46174;BME280;31897;52.420;13.498;2023-05-24T05:30:56;101600;;;10.29482;29.80028
46174;BME280;31897;52.420;13.498;2023-05-24T05:33:57;101600;;;10.29385;29.71194
46174;BME280;31897;52.420;13.498;2023-05-24T05:36:58;101600;;;10.26349;29.64792
46174;BME280;31897;52.420;13.498;2023-05-24T05:39:59;101600;;;10.32164;29.65232
46174;BME280;31897;52.420;13.498;2023-05-24T05:43:00;101600;;;10.33747;29.53998
46174;BME280;31897;52.420;13.498;2023-05-24T05:46:00;101600;;;10.24378;29.65431
46174;BME280;31897;52.420;13.498;2023-05-24T05:49:01;101600;;;10.30355;29.61744
46174;BME280;31897;52.420;13.498;2023-05-24T05:52:03;101600;;;10.35943;29.5453
46174;BME280;31897;52.420;13.498;2023-05-24T05:55:04;101600;;;10.39012;29.44433
46174;BME280;31897;52.420;13.498;2023-05-24T05:58:05;101600;;;10.41015;29.36131
46174;BME280;31897;52.420;13.498;2023-05-24T06:01:06;101600;;;10.46216;29.33636
46174;BME280;31897;52.420;13.498;2023-05-24T06:04:07;101600;;;10.46927;29.34207
46174;BME280;31897;52.420;13.498;2023-05-24T06:07:07;101600;;;10.49543;29.18813
46174;BME280;31897;52.420;13.498;2023-05-24T06:10:08;101600;;;10.51934;29.12854
46174;BME280;31897;52.420;13.498;2023-05-24T06:13:09;101600;;;10.39077;29.04948
46174;BME280;31897;52.420;13.498;2023-05-24T06:16:10;101600;;;10.29062;29.22305
46174;BME280;31897;52.420;13.498;2023-05-24T06:19:11;101600;;;10.21956;29.24849
46174;BME280;31897;52.420;13.498;2023-05-24T06:22:12;101600;;;10.28675;29.24082
46174;BME280;31897;52.420;13.498;2023-05-24T06:25:12;101600;;;10.32648;29.17498
46174;BME280;31897;52.420;13.498;2023-05-24T06:28:13;101600;;;10.37009;29.24451
46174;BME280;31897;52.420;13.498;2023-05-24T06:31:14;101600;;;10.44019;29.23086
46174;BME280;31897;52.420;13.498;2023-05-24T06:34:15;101600;;;10.43502;29.26046
46174;BME280;31897;52.420;13.498;2023-05-24T06:37:16;101600;;;10.49963;29.21159
46174;BME280;31897;52.420;13.498;2023-05-24T06:40:16;101600;;;10.52903;29.19902
46174;BME280;31897;52.420;13.498;2023-05-24T06:43:17;101600;;;10.60171;29.12633
46174;BME280;31897;52.420;13.498;2023-05-24T06:46:18;101600;;;10.71865;29.01113
46174;BME280;31897;52.420;13.498;2023-05-24T06:49:19;101600;;;10.87436;28.97149
46174;BME280;31897;52.420;13.498;2023-05-24T06:52:19;101600;;;10.98646;28.77367
46174;BME280;31897;52.420;13.498;2023-05-24T06:55:20;101600;;;11.0375;28.76635
46174;BME280;31897;52.420;13.498;2023-05-24T06:58:21;101600;;;11.13473;28.62195
46174;BME280;31897;52.420;13.498;2023-05-24T07:01:22;101600;;;11.11632;28.59885
46174;BME280;31897;52.420;13.498;2023-05-24T07:04:23;101600;;;11.1399;28.59228
46174;BME280;31897;52.420;13.498;2023-05-24T07:07:23;101600;;;11.26137;28.48254
46174;BME280;31897;52.420;13.498;2023-05-24T07:10:24;101600;;;11.23132;28.34757
46174;BME280;31897;52.420;13.498;2023-05-24T07:13:25;101600;;;11.34083;28.40348
46174;BME280;31897;52.420;13.498;2023-05-24T07:16:26;101600;;;11.49816;28.3044
46174;BME280;31897;52.420;13.498;2023-05-24T07:19:27;101600;;;11.63287;28.30639
46174;BME280;31897;52.420;13.498;2023-05-24T07:22:27;101600;;;11.75853;28.24952
46174;BME280;31897;52.420;13.498;2023-05-24T07:25:28;101600;;;11.89001;28.0978
46174;BME280;31897;52.420;13.498;2023-05-24T07:28:29;101600;;;11.81022;28.06468
46174;BME280;31897;52.420;13.498;2023-05-24T07:31:30;101600;;;11.75336;28.01906
46174;BME280;31897;52.420;13.498;2023-05-24T07:34:31;101600;;;11.70168;27.87278
46174;BME280;31897;52.420;13.498;2023-05-24T07:37:31;101600;;;11.68003;28.03898
46174;BME280;31897;52.420;13.498;2023-05-24T07:40:32;101700;;;11.73592;28.08462
46174;BME280;31897;52.420;13.498;2023-05-24T07:43:33;101700;;;11.77081;27.95349
46174;BME280;31897;52.420;13.498;2023-05-24T07:46:34;101600;;;11.76919;27.98902
46174;BME280;31897;52.420;13.498;2023-05-24T07:49:35;101700;;;11.83574;27.99295
46174;BME280;31897;52.420;13.498;2023-05-24T07:52:36;101700;;;11.91941;27.99045
46174;BME280;31897;52.420;13.498;2023-05-24T07:55:36;101700;;;11.92232;27.87205
46174;BME280;31897;52.420;13.498;2023-05-24T07:58:37;101700;;;11.92458;27.71225
46174;BME280;31897;52.420;13.498;2023-05-24T08:01:38;101700;;;11.74238;27.65867
46174;BME280;31897;52.420;13.498;2023-05-24T08:04:38;101700;;;11.73786;27.83622
46174;BME280;31897;52.420;13.498;2023-05-24T08:07:39;101700;;;11.83897;27.72669
46174;BME280;31897;52.420;13.498;2023-05-24T08:10:40;101700;;;11.93491;27.75335
46174;BME280;31897;52.420;13.498;2023-05-24T08:13:42;101700;;;11.97433;27.65157
46174;BME280;31897;52.420;13.498;2023-05-24T08:16:43;101700;;;12.0286;27.60847
46174;BME280;31897;52.420;13.498;2023-05-24T08:19:43;101700;;;12.11356;27.65913
46174;BME280;31897;52.420;13.498;2023-05-24T08:22:44;101700;;;12.0945;27.55318
46174;BME280;31897;52.420;13.498;2023-05-24T08:25:45;101700;;;12.15879;27.56303
46174;BME280;31897;52.420;13.498;2023-05-24T08:28:46;101700;;;12.15685;27.64596
46174;BME280;31897;52.420;13.498;2023-05-24T08:31:47;101700;;;12.18786;27.69828
46174;BME280;31897;52.420;13.498;2023-05-24T08:34:47;101700;;;12.27831;27.64222
46174;BME280;31897;52.420;13.498;2023-05-24T08:37:48;101700;;;12.41593;27.53729
46174;BME280;31897;52.420;13.498;2023-05-24T08:40:49;101700;;;12.45631;27.40572
46174;BME280;31897;52.420;13.498;2023-05-24T08:43:50;101700;;;12.50412;27.39237
46174;BME280;31897;52.420;13.498;2023-05-24T08:46:52;101700;;;12.64691;27.37602
46174;BME280;31897;52.420;13.498;2023-05-24T08:49:52;101700;;;12.74964;27.11789
46174;BME280;31897;52.420;13.498;2023-05-24T08:52:54;101700;;;12.70667;26.98293
46174;BME280;31897;52.420;13.498;2023-05-24T08:55:55;101700;;;12.63754;27.09778
46174;BME280;31897;52.420;13.498;2023-05-24T08:58:56;101700;;;12.65628;27.07347
46174;BME280;31897;52.420;13.498;2023-05-24T09:01:57;101700;;;12.66177;27.097
46174;BME280;31897;52.420;13.498;2023-05-24T09:04:59;101700;;;12.54353;27.11858
46174;BME280;31897;52.420;13.498;2023-05-24T09:08:00;101700;;;12.46213;27.2219
46174;BME280;31897;52.420;13.498;2023-05-24T09:11:01;101700;;;12.41399;27.35374
46174;BME280;31897;52.420;13.498;2023-05-24T09:14:02;101700;;;12.34454;27.33816
46174;BME280;31897;52.420;13.498;2023-05-24T09:17:03;101700;;;12.38363;27.31916
46174;BME280;31897;52.420;13.498;2023-05-24T09:20:05;101700;;;12.47473;27.23927
46174;BME280;31897;52.420;13.498;2023-05-24T09:23:06;101700;;;12.55064;27.19538
46174;BME280;31897;52.420;13.498;2023-05-24T09:26:07;101700;;;12.51704;27.03055
46174;BME280;31897;52.420;13.498;2023-05-24T09:29:08;101700;;;12.58295;27.12324
46174;BME280;31897;52.420;13.498;2023-05-24T09:32:09;101700;;;12.62624;26.9322
46174;BME280;31897;52.420;13.498;2023-05-24T09:35:11;101700;;;12.58521;26.89205
46174;BME280;31897;52.420;13.498;2023-05-24T09:38:15;101700;;;12.54224;26.79272
46174;BME280;31897;52.420;13.498;2023-05-24T09:41:16;101700;;;12.43984;26.59464
46174;BME280;31897;52.420;13.498;2023-05-24T09:44:17;101700;;;12.50832;26.79383
46174;BME280;31897;52.420;13.498;2023-05-24T09:47:18;101700;;;12.63625;26.74221
46174;BME280;31897;52.420;13.498;2023-05-24T09:50:18;101700;;;12.71184;26.68044
46174;BME280;31897;52.420;13.498;2023-05-24T09:53:19;101700;;;12.70538;26.49687
46174;BME280;31897;52.420;13.498;2023-05-24T09:56:21;101700;;;12.71055;26.5382
46174;BME280;31897;52.420;13.498;2023-05-24T09:59:22;101700;;;12.80133;26.52923
46174;BME280;31897;52.420;13.498;2023-05-24T10:02:24;101700;;;12.8976;26.354
46174;BME280;31897;52.420;13.498;2023-05-24T10:05:25;101700;;;12.89081;26.43134
46174;BME280;31897;52.420;13.498;2023-05-24T10:08:26;101700;;;12.83008;26.21988
46174;BME280;31897;52.420;13.498;2023-05-24T10:11:27;101700;;;12.72929;26.26484
46174;BME280;31897;52.420;13.498;2023-05-24T10:14:28;101700;;;12.65789;26.16649
46174;BME280;31897;52.420;13.498;2023-05-24T10:17:30;101700;;;12.59264;26.23986
46174;BME280;31897;52.420;13.498;2023-05-24T10:20:31;101700;;;12.5991;26.32855
46174;BME280;31897;52.420;13.498;2023-05-24T10:23:32;101700;;;12.65466;26.25553
46174;BME280;31897;52.420;13.498;2023-05-24T10:26:33;101700;;;12.65111;26.22601
46174;BME280;31897;52.420;13.498;2023-05-24T10:29:40;101700;;;12.77516;26.03794
46174;BME280;31897;52.420;13.498;2023-05-24T10:32:43;101700;;;12.96285;25.96025
46174;BME280;31897;52.420;13.498;2023-05-24T10:35:45;101700;;;13.09853;25.83682
46174;BME280;31897;52.420;13.498;2023-05-24T10:38:46;101700;;;12.94315;25.77109
46174;BME280;31897;52.420;13.498;2023-05-24T10:41:46;101700;;;12.95413;25.88936
46174;BME280;31897;52.420;13.498;2023-05-24T10:44:47;101700;;;12.88338;25.80875
46174;BME280;31897;52.420;13.498;2023-05-24T10:47:48;101700;;;12.91892;25.86686
46174;BME280;31897;52.420;13.498;2023-05-24T10:50:49;101700;;;12.83105;25.8818
46174;BME280;31897;52.420;13.498;2023-05-24T10:53:50;101700;;;12.81393;25.98915
46174;BME280;31897;52.420;13.498;2023-05-24T10:56:50;101700;;;12.85108;25.8633
46174;BME280;31897;52.420;13.498;2023-05-24T10:59:51;101700;;;12.89534;25.95667
46174;BME280;31897;52.420;13.498;2023-05-24T11:02:58;101700;;;12.9593;25.85951
46174;BME280;31897;52.420;13.498;2023-05-24T11:05:59;101700;;;13.11081;25.88387
46174;BME280;31897;52.420;13.498;2023-05-24T11:09:00;101700;;;13.17994;25.74492
46174;BME280;31897;52.420;13.498;2023-05-24T11:12:01;101700;;;13.20966;25.56577
46174;BME280;31897;52.420;13.498;2023-05-24T11:15:02;101700;;;13.2817;25.52163
46174;BME280;31897;52.420;13.498;2023-05-24T11:18:21;101700;;;13.23163;25.34531
46174;BME280;31897;52.420;13.498;2023-05-24T11:21:22;101700;;;13.51204;25.26382
46174;BME280;31897;52.420;13.498;2023-05-24T11:24:23;101700;;;13.94557;24.86134
46174;BME280;31897;52.420;13.498;2023-05-24T11:27:25;101700;;;14.16977;24.69222
46174;BME280;31897;52.420;13.498;2023-05-24T11:30:26;101700;;;14.31321;24.50816
46174;BME280;31897;52.420;13.498;2023-05-24T11:33:27;101700;;;14.456;24.43715
46174;BME280;31897;52.420;13.498;2023-05-24T11:36:27;101700;;;14.50252;24.26264
46174;BME280;31897;52.420;13.498;2023-05-24T11:39:29;101700;;;14.49703;24.06628
46174;BME280;31897;52.420;13.498;2023-05-24T11:42:30;101700;;;14.58038;23.97957
46174;BME280;31897;52.420;13.498;2023-05-24T11:45:31;101700;;;14.49089;23.83421
46174;BME280;31897;52.420;13.498;2023-05-24T11:48:31;101700;;;14.47603;23.86459
46174;BME280;31897;52.420;13.498;2023-05-24T11:51:33;101700;;;14.4938;23.84005
46174;BME280;31897;52.420;13.498;2023-05-24T11:54:34;101700;;;14.63013;23.82267
46174;BME280;31897;52.420;13.498;2023-05-24T11:57:36;101700;;;14.80587;23.74407
46174;BME280;31897;52.420;13.498;2023-05-24T12:00:36;101700;;;14.89988;23.56139
46174;BME280;31897;52.420;13.498;2023-05-24T12:03:37;101700;;;14.83527;23.48056
46174;BME280;31897;52.420;13.498;2023-05-24T12:06:38;101700;;;14.83236;23.65357
46174;BME280;31897;52.420;13.498;2023-05-24T12:09:39;101700;;;14.90634;23.55516
46174;BME280;31897;52.420;13.498;2023-05-24T12:12:41;101700;;;14.98743;23.59956
46174;BME280;31897;52.420;13.498;2023-05-24T12:15:43;101700;;;15.04202;23.66891
46174;BME280;31897;52.420;13.498;2023-05-24T12:18:43;101800;;;15.05688;23.65041
46174;BME280;31897;52.420;13.498;2023-05-24T12:21:45;101800;;;14.8876;23.57978
46174;BME280;31897;52.420;13.498;2023-05-24T12:24:48;101800;;;14.83139;23.594
46174;BME280;31897;52.420;13.498;2023-05-24T12:27:51;101800;;;14.79424;23.62532
46174;BME280;31897;52.420;13.498;2023-05-24T12:30:52;101800;;;14.78293;23.53636
46174;BME280;31897;52.420;13.498;2023-05-24T12:33:53;101800;;;14.76581;23.45957
46174;BME280;31897;52.420;13.498;2023-05-24T12:36:54;101800;;;14.76516;23.57285
46174;BME280;31897;52.420;13.498;2023-05-24T12:39:55;101800;;;14.84076;23.45649
46174;BME280;31897;52.420;13.498;2023-05-24T12:42:56;101800;;;14.8834;23.38319
46174;BME280;31897;52.420;13.498;2023-05-24T12:45:57;101800;;;15.0627;23.33999
46174;BME280;31897;52.420;13.498;2023-05-24T12:48:57;101700;;;15.29207;23.28871
46174;BME280;31897;52.420;13.498;2023-05-24T12:51:58;101700;;;15.54082;22.8185
46174;BME280;31897;52.420;13.498;2023-05-24T12:54:59;101700;;;15.766;22.84472
46174;BME280;31897;52.420;13.498;2023-05-24T12:58:00;101700;;;15.88553;22.50488
46174;BME280;31897;52.420;13.498;2023-05-24T13:01:01;101700;;;16.35687;22.16716
46174;BME280;31897;52.420;13.498;2023-05-24T13:04:02;101700;;;16.71289;22.00757
46174;BME280;31897;52.420;13.498;2023-05-24T13:07:03;101700;;;17.33511;21.8476
46174;BME280;31897;52.420;13.498;2023-05-24T13:10:04;101700;;;17.7047;21.21841
46174;BME280;31897;52.420;13.498;2023-05-24T13:13:05;101700;;;17.49341;21.24033
46174;BME280;31897;52.420;13.498;2023-05-24T13:16:06;101700;;;16.97392;21.33655
46174;BME280;31897;52.420;13.498;2023-05-24T13:19:06;101700;;;16.75715;21.62819
46174;BME280;31897;52.420;13.498;2023-05-24T13:22:07;101700;;;16.63859;21.68152
46174;BME280;31897;52.420;13.498;2023-05-24T13:25:08;101700;;;16.40663;21.73399
46174;BME280;31897;52.420;13.498;2023-05-24T13:28:09;101700;;;16.27611;21.91944
46174;BME280;31897;52.420;13.498;2023-05-24T13:31:10;101700;;;16.18985;21.86947
46174;BME280;31897;52.420;13.498;2023-05-24T13:34:11;101700;;;16.19599;21.89312
46174;BME280;31897;52.420;13.498;2023-05-24T13:37:12;101700;;;16.72775;21.62953
46174;BME280;31897;52.420;13.498;2023-05-24T13:40:12;101700;;;17.03725;21.5614
46174;BME280;31897;52.420;13.498;2023-05-24T13:43:13;101700;;;17.09346;21.51085
46174;BME280;31897;52.420;13.498;2023-05-24T13:46:14;101700;;;16.98975;21.21592
46174;BME280;31897;52.420;13.498;2023-05-24T13:49:15;101700;;;16.75489;21.31676
46174;BME280;31897;52.420;13.498;2023-05-24T13:52:16;101700;;;16.96682;21.09711
46174;BME280;31897;52.420;13.498;2023-05-24T13:55:16;101700;;;17.475;20.97714
46174;BME280;31897;52.420;13.498;2023-05-24T13:58:17;101700;;;18.23614;20.6283
46174;BME280;31897;52.420;13.498;2023-05-24T14:01:18;101700;;;18.39929;20.66249
46174;BME280;31897;52.420;13.498;2023-05-24T14:04:19;101700;;;18.93333;20.15482
46174;BME280;31897;52.420;13.498;2023-05-24T14:07:19;101700;;;19.4958;19.85544
46174;BME280;31897;52.420;13.498;2023-05-24T14:10:20;101700;;;19.81273;19.423
46174;BME280;31897;52.420;13.498;2023-05-24T14:13:21;101700;;;19.44572;19.68311
46174;BME280;31897;52.420;13.498;2023-05-24T14:16:22;101700;;;19.35817;19.6514
46174;BME280;31897;52.420;13.498;2023-05-24T14:19:23;101700;;;19.69061;19.23622
46174;BME280;31897;52.420;13.498;2023-05-24T14:22:24;101700;;;19.2984;19.48566
46174;BME280;31897;52.420;13.498;2023-05-24T14:25:25;101700;;;19.03833;19.23389
46174;BME280;31897;52.420;13.498;2023-05-24T14:28:26;101700;;;18.70362;19.54621
46174;BME280;31897;52.420;13.498;2023-05-24T14:31:26;101700;;;18.84836;19.44849
46174;BME280;31897;52.420;13.498;2023-05-24T14:34:27;101700;;;19.49709;19.12564
46174;BME280;31897;52.420;13.498;2023-05-24T14:37:28;101700;;;19.98073;18.92525
46174;BME280;31897;52.420;13.498;2023-05-24T14:40:29;101700;;;19.74844;19.13062
46174;BME280;31897;52.420;13.498;2023-05-24T14:43:29;101700;;;19.49838;19.07732
46174;BME280;31897;52.420;13.498;2023-05-24T14:46:30;101700;;;19.68156;18.86257
46174;BME280;31897;52.420;13.498;2023-05-24T14:49:31;101700;;;19.54393;18.96636
46174;BME280;31897;52.420;13.498;2023-05-24T14:52:32;101700;;;19.44895;19.12212
46174;BME280;31897;52.420;13.498;2023-05-24T14:55:33;101700;;;19.32037;19.20721
46174;BME280;31897;52.420;13.498;2023-05-24T14:58:33;101700;;;19.42246;18.95465
46174;BME280;31897;52.420;13.498;2023-05-24T15:01:34;101700;;;19.68899;18.86218
46174;BME280;31897;52.420;13.498;2023-05-24T15:04:35;101700;;;19.7969;18.57881